Flight Track Log - Related Links

Times and Time Zones

All times are in EDT time to prevent confusion due to time zone crossing. See the UAL527 flight status page for this flight to view local times or setup timezone preferences in your user account.

Time Position Orientation Groundspeed Altitude Reporting Facility
EDT Latitude Longitude Course Direction KTS MPH feet Rate Location/Type
Sat 11:00:17 AM 26.0728 -80.1411 55° Northeast 151 174 700  Level Miami Center
Sat 11:00:39 AM 26.0794 -80.1206 70° East 144 166 1,400 1,522 Climbing Miami Center
Sat 11:01:24 AM 26.0761 -80.0811 95° East 196 226 2,400 1,300 Climbing Miami Center
Sat 11:01:39 AM 26.0850 -80.0631 61° Northeast 233 268 2,700 1,869 Climbing Miami Center
Sat 11:02:25 AM 26.0986 -80.0100 74° East 249 287 4,300 2,200 Climbing Miami Center
Sat 11:02:39 AM 26.1117 -79.9897 54° Northeast 286 329 4,900 3,040 Climbing Miami Center
Sat 11:03:00 AM 26.4781 -80.0119 56° Northeast  Level Estimated
Sat 11:03:40 AM 26.1364 -79.9069 72° East 296 341 8,100  Level Miami Center
Sat 11:04:00 AM 26.5794 -79.9765 50° Northeast  Level Estimated
Sat 11:04:40 AM 26.1653 -79.8219 69° East 302 348 10,500  Level Miami Center
Sat 11:05:00 AM 26.6808 -79.9410 55° Northeast  Level Estimated
Sat 11:05:39 AM 26.2172 -79.7308 58° Northeast 315 362 12,000  Level Miami Center
Sat 11:06:39 AM 26.2733 -79.6394 56° Northeast 333 383 14,300 2,250 Climbing Miami Center
Sat 11:07:39 AM 26.3269 -79.5550 55° Northeast 361 415 16,500 2,100 Climbing Miami Center
Sat 11:08:39 AM 26.4183 -79.4803 36° Northeast 366 421 18,500 1,800 Climbing Miami Center
Sat 11:09:39 AM 26.5089 -79.4336 25° Northeast 376 433 20,100 1,636 Climbing Miami Center
Sat 11:10:40 AM 26.6186 -79.3733 26° Northeast 394 453 21,800 1,350 Climbing Miami Center
Sat 11:11:39 AM 26.7008 -79.3286 26° Northeast 405 466 22,800 1,513 Climbing Miami Center
Sat 11:12:39 AM 26.8272 -79.2614 25° Northeast 404 465 24,800 1,600 Climbing Miami Center
Sat 11:13:39 AM 26.9325 -79.2031 26° Northeast 404 465 26,000 1,300 Climbing Miami Center
Sat 11:14:39 AM 27.0400 -79.1444 26° Northeast 409 471 27,400 1,190 Climbing Miami Center
Sat 11:15:40 AM 27.1431 -79.0953 23° Northeast 427 491 28,400 1,050 Climbing Miami Center
Sat 11:16:39 AM 27.2528 -79.0367 25° Northeast 427 491 29,500 1,361 Climbing Miami Center
Sat 11:17:39 AM 27.3867 -79.0133 North 429 494 31,100 1,500 Climbing Miami Center
Sat 11:18:39 AM 27.5061 -78.9922 North 436 502 32,500 950 Climbing Miami Center
Sat 11:19:39 AM 27.6253 -78.9781 North 431 496 33,000 250 Climbing Miami Center
Sat 11:20:39 AM 27.7300 -78.9611 North 419 482 33,000  Level Miami Center
Sat 11:21:39 AM 27.8617 -78.9400 North 427 491 33,000  Level Miami Center
Sat 11:22:39 AM 27.9789 -78.9233 North 427 491 33,000  Level Miami Center
Sat 11:23:39 AM 28.0961 -78.9067 North 427 491 33,000  Level Miami Center
Sat 11:24:40 AM 28.2133 -78.8853 North 427 491 33,000 -50 Level Miami Center
Sat 11:25:39 AM 28.3325 -78.8683 North 427 491 32,900 -50 Descending Miami Center
Sat 11:26:40 AM 28.4475 -78.8517 North 427 491 32,900 50 Level Miami Center
Sat 11:27:39 AM 28.5647 -78.8325 North 432 497 33,000 50 Climbing Miami Center
Sat 11:28:39 AM 28.6714 -78.8153 North 426 490 33,000  Level Miami Center
Sat 11:29:39 AM 28.7822 -78.7961 North 420 483 33,000  Level Miami Center
Sat 11:30:39 AM 28.9033 -78.7792 North 420 483 33,000 -50 Level Miami Center
Sat 11:31:39 AM 29.0206 -78.7647 North 420 483 32,900  Descending Miami Center
Sat 11:32:39 AM 29.1356 -78.7475 North 414 476 33,000 50 Climbing Miami Center
Sat 11:33:39 AM 29.2464 -78.7281 North 414 476 33,000  Level Miami Center
Sat 11:34:39 AM 29.3572 -78.7086 North 408 470 33,000 -50 Level Miami Center
Sat 11:35:40 AM 29.4719 -78.6939 North 413 475 32,900 -50 Descending Miami Center
Sat 11:36:39 AM 29.5850 -78.6767 North 406 467 32,900 50 Level Miami Center
Sat 11:37:40 AM 29.6914 -78.6544 10° North 400 460 33,000 50 Climbing Miami Center
Sat 11:38:39 AM 29.8064 -78.6372 North 408 470 33,000 -63 Level Miami Center
Sat 11:39:16 AM 29.8881 -78.6214 10° North 411 473 32,900  Descending Jacksonville Center
Sat 11:40:16 AM 29.9942 -78.6072 North 411 473 33,000  Climbing Jacksonville Center
Sat 11:41:16 AM 30.1000 -78.5881 North 405 466 32,900  Descending Jacksonville Center
Sat 11:42:16 AM 30.2142 -78.5686 North 410 472 33,000 50 Climbing Jacksonville Center
Sat 11:43:16 AM 30.3242 -78.5517 North 402 463 33,000  Level Jacksonville Center
Sat 11:44:16 AM 30.4403 -78.5342 North 402 463 33,000  Level Jacksonville Center
Sat 11:45:16 AM 30.5442 -78.5175 North 402 463 33,000  Level Jacksonville Center
Sat 11:46:16 AM 30.6561 -78.4978 North 409 471 33,000  Level Jacksonville Center
Sat 11:47:16 AM 30.7683 -78.4806 North 403 464 33,000  Level Jacksonville Center
Sat 11:48:16 AM 30.8806 -78.4633 North 403 464 33,000  Level Jacksonville Center
Sat 11:49:16 AM 30.9925 -78.4433 North 401 461 33,000  Level Jacksonville Center
Sat 11:50:16 AM 31.1211 -78.4228 North 417 480 33,000 -50 Level Jacksonville Center
Sat 11:51:16 AM 31.2253 -78.4106 North 392 451 32,900 -50 Descending Jacksonville Center
Sat 11:52:16 AM 31.3411 -78.3881 North 403 464 32,900 50 Level Jacksonville Center
Sat 11:53:16 AM 31.4511 -78.3681 North 407 468 33,000  Climbing Jacksonville Center
Sat 11:54:16 AM 31.5592 -78.3531 North 397 457 32,900 -50 Descending Jacksonville Center
Sat 11:55:16 AM 31.6711 -78.3331 North 397 457 32,900  Level Jacksonville Center
Sat 11:56:16 AM 31.7811 -78.3153 North 397 457 32,900 50 Level Jacksonville Center
Sat 11:57:16 AM 31.8869 -78.2978 North 397 457 33,000 50 Climbing Jacksonville Center
Sat 11:58:16 AM 32.0011 -78.2775 North 402 463 33,000  Level Jacksonville Center
Sat 11:59:16 AM 32.1111 -78.2597 North 402 463 33,000 350 Level Jacksonville Center
Sat 12:00:16 PM 32.2189 -78.2419 North 402 463 33,700 750 Climbing Jacksonville Center
Sat 12:01:16 PM 32.3183 -78.2197 11° North 402 463 34,500 650 Climbing Jacksonville Center
Sat 12:02:16 PM 32.4283 -78.2042 North 402 463 35,000 200 Climbing Jacksonville Center
Sat 12:03:16 PM 32.5381 -78.1839 North 402 463 34,900  Descending Jacksonville Center
Sat 12:04:16 PM 32.6483 -78.1681 North 397 457 35,000  Climbing Jacksonville Center
Sat 12:05:16 PM 32.7558 -78.1453 10° North 397 457 34,900 -50 Descending Jacksonville Center
Sat 12:06:16 PM 32.8661 -78.1319 North 397 457 34,900  Level Jacksonville Center
Sat 12:07:16 PM 32.9736 -78.1114 North 391 450 34,900  Level Jacksonville Center
Sat 12:08:16 PM 33.0836 -78.0931 North 391 450 34,900 50 Level Jacksonville Center
Sat 12:09:16 PM 33.1914 -78.0750 North 391 450 35,000 50 Climbing Jacksonville Center
Sat 12:10:16 PM 33.2992 -78.0567 North 386 444 35,000 -51 Level Jacksonville Center
Sat 12:11:13 PM 33.4083 -78.0394 North 387 445 34,900 -52 Descending Washington Center
Sat 12:12:11 PM 33.5150 -78.0200 North 387 445 34,900  Level Washington Center
Sat 12:13:12 PM 33.6219 -78.0008 North 392 451 34,900 49 Level Washington Center
Sat 12:14:14 PM 33.7308 -77.9839 North 392 451 35,000 49 Climbing Washington Center
Sat 12:15:14 PM 33.8333 -77.9669 North 387 445 35,000  Level Washington Center
Sat 12:16:11 PM 33.9464 -77.9475 North 392 451 35,000  Level Washington Center
Sat 12:17:12 PM 34.0553 -77.9256 North 397 457 35,000  Level Washington Center
Sat 12:18:13 PM 34.1619 -77.9111 North 392 451 35,000  Level Washington Center
Sat 12:19:14 PM 34.2686 -77.8889 10° North 387 445 35,000  Level Washington Center
Sat 12:20:12 PM 34.3711 -77.8767 North 392 451 35,000  Level Washington Center
Sat 12:21:13 PM 34.4775 -77.8744 North 392 451 35,000  Level Washington Center
Sat 12:22:11 PM 34.5861 -77.8750 360° North 387 445 35,000  Level Washington Center
Sat 12:23:11 PM 34.6947 -77.8731 North 387 445 35,000  Level Washington Center
Sat 12:24:12 PM 34.7992 -77.8683 North 382 440 35,000 49 Level Washington Center
Sat 12:25:13 PM 34.9139 -77.8664 North 382 440 35,100 756 Climbing Washington Center
Sat 12:26:11 PM 35.0203 -77.8619 North 382 440 36,500 966 Climbing Washington Center
Sat 12:27:11 PM 35.1247 -77.8622 360° North 382 440 37,000 246 Climbing Washington Center
Sat 12:28:13 PM 35.2311 -77.8603 North 377 434 37,000  Level Washington Center
Sat 12:29:13 PM 35.3397 -77.8581 North 382 440 37,000  Level Washington Center
Sat 12:30:11 PM 35.4461 -77.8586 360° North 382 440 37,000  Level Washington Center
Sat 12:31:12 PM 35.5531 -77.8361 10° North 382 440 37,000  Level Washington Center
Sat 12:32:13 PM 35.6578 -77.8033 14° North 388 447 37,000  Level Washington Center
Sat 12:33:11 PM 35.7628 -77.7678 15° North 388 447 37,000  Level Washington Center
Sat 12:34:12 PM 35.8636 -77.7347 15° North 378 435 37,000  Level Washington Center
Sat 12:35:12 PM 35.9664 -77.7017 15° North 378 435 37,000  Level Washington Center
Sat 12:36:12 PM 36.0608 -77.6681 16° North 378 435 37,000  Level Washington Center
Sat 12:37:13 PM 36.1658 -77.6322 15° North 378 435 37,000  Level Washington Center
Sat 12:38:13 PM 36.2728 -77.5989 14° North 378 435 37,000  Level Washington Center
Sat 12:39:12 PM 36.3736 -77.5628 16° North 378 435 37,000  Level Washington Center
Sat 12:40:12 PM 36.4742 -77.5292 15° North 373 429 37,000  Level Washington Center
Sat 12:41:12 PM 36.5769 -77.4931 16° North 373 429 37,000  Level Washington Center
Sat 12:42:13 PM 36.6819 -77.4567 16° North 380 437 37,000  Level Washington Center
Sat 12:43:13 PM 36.7847 -77.4228 15° North 380 437 37,000  Level Washington Center
Sat 12:44:11 PM 36.8875 -77.3889 15° North 380 437 37,000  Level Washington Center
Sat 12:45:12 PM 36.9903 -77.3522 16° North 380 437 37,000  Level Washington Center
Sat 12:46:13 PM 37.0950 -77.3156 16° North 380 437 37,000  Level Washington Center
Sat 12:47:11 PM 37.1956 -77.2814 15° North 380 437 37,000  Level Washington Center
Sat 12:48:11 PM 37.3003 -77.2472 15° North 380 437 37,000  Level Washington Center
Sat 12:49:12 PM 37.4072 -77.2128 14° North 380 437 37,000  Level Washington Center
Sat 12:50:13 PM 37.5206 -77.1708 16° North 380 437 37,000  Level Washington Center
Sat 12:51:11 PM 37.6272 -77.1336 15° North 380 437 37,000  Level Washington Center
Sat 12:52:12 PM 37.7300 -77.0936 17° North 380 437 37,000  Level Washington Center
Sat 12:53:13 PM 37.8247 -77.0350 26° Northeast 380 437 37,000  Level Washington Center
Sat 12:54:13 PM 37.9214 -76.9739 27° Northeast 380 437 37,000  Level Washington Center
Sat 12:55:12 PM 38.0158 -76.9122 27° Northeast 380 437 37,000  Level Washington Center
Sat 12:56:13 PM 38.1125 -76.8481 28° Northeast 380 437 37,000  Level Washington Center
Sat 12:57:11 PM 38.2069 -76.7889 26° Northeast 380 437 37,000  Level Washington Center
Sat 12:58:11 PM 38.2928 -76.7319 28° Northeast 380 437 37,000  Level Washington Center
Sat 12:59:12 PM 38.3978 -76.6672 26° Northeast 380 437 37,000  Level Washington Center
Sat 01:00:13 PM 38.4900 -76.6050 28° Northeast 380 437 37,000  Level Washington Center
Sat 01:01:11 PM 38.5864 -76.5425 27° Northeast 380 437 37,000  Level Washington Center
Sat 01:02:11 PM 38.6828 -76.4800 27° Northeast 385 443 37,000  Level Washington Center
Sat 01:03:12 PM 38.7769 -76.4197 27° Northeast 385 443 37,000 -200 Level Washington Center
Sat 01:04:11 PM 38.8733 -76.3542 28° Northeast 385 443 36,600 -1,832 Descending Washington Center
Sat 01:09:32 PM 39.3620 -75.9820 28° Northeast 100 115 25,400 -2,105 Descending FlightAware ADS-B
Sat 01:09:36 PM 39.3710 -75.9710 43° Northeast 100 115 25,200 -842 Descending FlightAware ADS-B
Sat 01:10:29 PM 39.4400 -75.8900 42° Northeast 409 471 24,600 -1,364 Descending FlightAware ADS-B
Sat 01:11:26 PM 39.5210 -75.7940 42° Northeast 410 472 22,700 -1,385 Descending FlightAware ADS-B
Sat 01:12:00 PM 39.5630 -75.7470 41° Northeast 410 472 22,500 -169 Descending FlightAware ADS-B
Sat 01:12:37 PM 39.6090 -75.6970 40° Northeast 410 472 22,500  Level FlightAware ADS-B
Sat 01:13:13 PM 39.6530 -75.6490 40° Northeast 410 472 22,500  Level FlightAware ADS-B
Sat 01:13:49 PM 39.6980 -75.6000 40° Northeast 410 472 22,500  Level FlightAware ADS-B
Sat 01:14:25 PM 39.7420 -75.5520 40° Northeast 410 472 22,500  Level FlightAware ADS-B
Sat 01:15:01 PM 39.7860 -75.5030 41° Northeast 410 472 22,500 -3,981 Level FlightAware ADS-B
Sat 01:16:12 PM 39.9217 -75.3156 41° Northeast 382 440 15,400 -3,955 Descending Washington Center
Sat 01:17:13 PM 39.9942 -75.2258 43° Northeast 371 427 13,800 -1,537 Descending Washington Center
Sat 01:18:13 PM 40.0647 -75.1386 43° Northeast 366 421 12,300 -1,462 Descending Washington Center
Sat 01:19:12 PM 40.1333 -75.0500 45° Northeast 316 364 10,900 -1,261 Descending New York TRACON
Sat 01:20:12 PM 40.2000 -74.9833 37° Northeast 285 328 9,800 -1,100 Descending New York TRACON
Sat 01:21:12 PM 40.2500 -74.9167 45° Northeast 276 318 8,700 -900 Descending New York TRACON
Sat 01:22:12 PM 40.3000 -74.8333 52° Northeast 274 315 8,000 -400 Descending New York TRACON
Sat 01:23:12 PM 40.3333 -74.7500 62° Northeast 273 314 7,900 -700 Descending New York TRACON
Sat 01:24:12 PM 40.3667 -74.6667 62° Northeast 262 302 6,600 -1,400 Descending New York TRACON
Sat 01:25:12 PM 40.4000 -74.5833 62° Northeast 256 295 5,100 -1,150 Descending New York TRACON
Sat 01:26:12 PM 40.4333 -74.5000 62° Northeast 254 292 4,300 -579 Descending New York TRACON
Sat 01:27:06 PM 40.4333 -74.4333 90° East 209 241 4,000 -600 Descending New York TRACON
Sat 01:28:12 PM 40.4167 -74.3667 108° East 182 209 3,100 -429 Descending New York TRACON
Sat 01:29:12 PM 40.4500 -74.3167 49° Northeast 183 211 3,100  Level New York TRACON
Sat 01:30:12 PM 40.5000 -74.2833 27° Northeast 183 211 3,100 -50 Level New York TRACON
Sat 01:31:12 PM 40.5500 -74.2500 27° Northeast 183 211 3,000 -600 Descending New York TRACON
Sat 01:32:12 PM 40.6000 -74.2333 14° North 184 212 1,900 -952 Descending New York TRACON
Sat 01:33:18 PM 40.6333 -74.2000 37° Northeast 152 175 1,000 -762 Descending New York TRACON
Sat 01:34:18 PM 40.6667 -74.1833 21° North 128 147 300 -700 Descending New York TRACON

Login

Don't have an account? Register now (free) for customized features, flight alerts, and more!